sensor_id;sensor_type;location;lat;lon;timestamp;temperature;humidity
22526;DHT22;11429;50.842;4.386;2024-03-29T00:01:18;10.60;99.90
22526;DHT22;11429;50.842;4.386;2024-03-29T00:03:43;10.60;99.90
22526;DHT22;11429;50.842;4.386;2024-03-29T00:06:10;10.50;99.90
22526;DHT22;11429;50.842;4.386;2024-03-29T00:08:35;10.50;99.90
22526;DHT22;11429;50.842;4.386;2024-03-29T00:11:02;10.50;99.90
22526;DHT22;11429;50.842;4.386;2024-03-29T00:13:28;10.50;99.90
22526;DHT22;11429;50.842;4.386;2024-03-29T00:15:54;10.50;99.90
22526;DHT22;11429;50.842;4.386;2024-03-29T00:18:20;10.60;99.90
22526;DHT22;11429;50.842;4.386;2024-03-29T00:20:45;10.60;99.90
22526;DHT22;11429;50.842;4.386;2024-03-29T00:23:11;10.70;99.90
22526;DHT22;11429;50.842;4.386;2024-03-29T00:25:37;10.70;99.90
22526;DHT22;11429;50.842;4.386;2024-03-29T00:28:02;10.70;99.90
22526;DHT22;11429;50.842;4.386;2024-03-29T00:30:29;10.70;99.90
22526;DHT22;11429;50.842;4.386;2024-03-29T00:32:54;10.70;99.90
22526;DHT22;11429;50.842;4.386;2024-03-29T00:35:20;10.70;99.90
22526;DHT22;11429;50.842;4.386;2024-03-29T00:37:48;10.80;99.90
22526;DHT22;11429;50.842;4.386;2024-03-29T00:40:14;10.70;99.90
22526;DHT22;11429;50.842;4.386;2024-03-29T00:42:40;10.80;99.90
22526;DHT22;11429;50.842;4.386;2024-03-29T00:45:06;10.80;99.90
22526;DHT22;11429;50.842;4.386;2024-03-29T00:47:32;10.90;99.90
22526;DHT22;11429;50.842;4.386;2024-03-29T00:49:58;10.80;99.90
22526;DHT22;11429;50.842;4.386;2024-03-29T00:52:23;10.90;99.90
22526;DHT22;11429;50.842;4.386;2024-03-29T00:54:49;10.80;99.90
22526;DHT22;11429;50.842;4.386;2024-03-29T00:57:16;10.90;99.90
22526;DHT22;11429;50.842;4.386;2024-03-29T00:59:42;11.00;99.90
22526;DHT22;11429;50.842;4.386;2024-03-29T01:02:09;11.00;99.90
22526;DHT22;11429;50.842;4.386;2024-03-29T01:04:35;11.00;99.90
22526;DHT22;11429;50.842;4.386;2024-03-29T01:07:01;11.00;99.90
22526;DHT22;11429;50.842;4.386;2024-03-29T01:09:27;11.00;99.90
22526;DHT22;11429;50.842;4.386;2024-03-29T01:11:52;11.00;99.90
22526;DHT22;11429;50.842;4.386;2024-03-29T01:14:19;11.00;99.90
22526;DHT22;11429;50.842;4.386;2024-03-29T01:16:45;11.00;99.90
22526;DHT22;11429;50.842;4.386;2024-03-29T01:19:11;10.90;99.90
22526;DHT22;11429;50.842;4.386;2024-03-29T01:21:36;11.00;99.90
22526;DHT22;11429;50.842;4.386;2024-03-29T01:24:03;11.00;99.90
22526;DHT22;11429;50.842;4.386;2024-03-29T01:26:30;10.90;99.90
22526;DHT22;11429;50.842;4.386;2024-03-29T01:28:56;11.00;99.90
22526;DHT22;11429;50.842;4.386;2024-03-29T01:31:23;10.90;99.90
22526;DHT22;11429;50.842;4.386;2024-03-29T01:33:49;10.80;99.90
22526;DHT22;11429;50.842;4.386;2024-03-29T01:36:14;10.80;99.90
22526;DHT22;11429;50.842;4.386;2024-03-29T01:38:40;10.70;99.90
22526;DHT22;11429;50.842;4.386;2024-03-29T01:41:06;10.60;99.90
22526;DHT22;11429;50.842;4.386;2024-03-29T01:43:32;10.50;99.90
22526;DHT22;11429;50.842;4.386;2024-03-29T01:45:58;10.50;99.90
22526;DHT22;11429;50.842;4.386;2024-03-29T01:48:24;10.50;99.90
22526;DHT22;11429;50.842;4.386;2024-03-29T01:50:52;10.30;99.90
22526;DHT22;11429;50.842;4.386;2024-03-29T01:53:19;10.20;99.90
22526;DHT22;11429;50.842;4.386;2024-03-29T01:55:45;10.20;99.90
22526;DHT22;11429;50.842;4.386;2024-03-29T01:58:11;10.10;99.90
22526;DHT22;11429;50.842;4.386;2024-03-29T02:00:41;10.10;99.90
22526;DHT22;11429;50.842;4.386;2024-03-29T02:03:07;9.90;99.90
22526;DHT22;11429;50.842;4.386;2024-03-29T02:05:40;9.90;99.90
22526;DHT22;11429;50.842;4.386;2024-03-29T02:08:07;9.90;99.90
22526;DHT22;11429;50.842;4.386;2024-03-29T02:10:34;9.80;99.90
22526;DHT22;11429;50.842;4.386;2024-03-29T02:13:00;9.70;99.90
22526;DHT22;11429;50.842;4.386;2024-03-29T02:15:27;9.70;99.90
22526;DHT22;11429;50.842;4.386;2024-03-29T02:17:53;9.50;99.90
22526;DHT22;11429;50.842;4.386;2024-03-29T02:20:19;9.60;99.90
22526;DHT22;11429;50.842;4.386;2024-03-29T02:22:54;9.50;99.90
22526;DHT22;11429;50.842;4.386;2024-03-29T02:25:21;9.50;99.90
22526;DHT22;11429;50.842;4.386;2024-03-29T02:27:47;9.30;99.90
22526;DHT22;11429;50.842;4.386;2024-03-29T02:30:17;9.30;99.90
22526;DHT22;11429;50.842;4.386;2024-03-29T02:32:43;9.30;99.90
22526;DHT22;11429;50.842;4.386;2024-03-29T02:35:09;9.30;99.90
22526;DHT22;11429;50.842;4.386;2024-03-29T02:37:35;9.20;99.90
22526;DHT22;11429;50.842;4.386;2024-03-29T02:40:05;9.10;99.90
22526;DHT22;11429;50.842;4.386;2024-03-29T02:42:32;9.10;99.90
22526;DHT22;11429;50.842;4.386;2024-03-29T02:44:58;9.10;99.90
22526;DHT22;11429;50.842;4.386;2024-03-29T02:47:24;9.10;99.90
22526;DHT22;11429;50.842;4.386;2024-03-29T02:49:49;8.90;99.90
22526;DHT22;11429;50.842;4.386;2024-03-29T02:52:15;8.80;99.90
22526;DHT22;11429;50.842;4.386;2024-03-29T02:54:41;8.80;99.90
22526;DHT22;11429;50.842;4.386;2024-03-29T02:57:07;8.80;99.90
22526;DHT22;11429;50.842;4.386;2024-03-29T02:59:33;8.70;99.90
22526;DHT22;11429;50.842;4.386;2024-03-29T03:01:59;8.70;99.90
22526;DHT22;11429;50.842;4.386;2024-03-29T03:04:25;8.60;99.90
22526;DHT22;11429;50.842;4.386;2024-03-29T03:06:50;8.60;99.90
22526;DHT22;11429;50.842;4.386;2024-03-29T03:09:16;8.60;99.90
22526;DHT22;11429;50.842;4.386;2024-03-29T03:12:00;8.60;99.90
22526;DHT22;11429;50.842;4.386;2024-03-29T03:14:26;8.60;99.90
22526;DHT22;11429;50.842;4.386;2024-03-29T03:16:52;8.50;99.90
22526;DHT22;11429;50.842;4.386;2024-03-29T03:19:18;8.50;99.90
22526;DHT22;11429;50.842;4.386;2024-03-29T03:21:44;8.50;99.90
22526;DHT22;11429;50.842;4.386;2024-03-29T03:24:09;8.50;99.90
22526;DHT22;11429;50.842;4.386;2024-03-29T03:26:37;8.40;99.90
22526;DHT22;11429;50.842;4.386;2024-03-29T03:29:03;8.40;99.90
22526;DHT22;11429;50.842;4.386;2024-03-29T03:31:29;8.50;99.90
22526;DHT22;11429;50.842;4.386;2024-03-29T03:33:54;8.50;99.90
22526;DHT22;11429;50.842;4.386;2024-03-29T03:36:20;8.40;99.90
22526;DHT22;11429;50.842;4.386;2024-03-29T03:38:46;8.40;99.90
22526;DHT22;11429;50.842;4.386;2024-03-29T03:41:11;8.40;99.90
22526;DHT22;11429;50.842;4.386;2024-03-29T03:43:38;8.40;99.90
22526;DHT22;11429;50.842;4.386;2024-03-29T03:46:03;8.30;99.90
22526;DHT22;11429;50.842;4.386;2024-03-29T03:48:29;8.30;99.90
22526;DHT22;11429;50.842;4.386;2024-03-29T03:50:58;8.20;99.90
22526;DHT22;11429;50.842;4.386;2024-03-29T03:53:23;8.20;99.90
22526;DHT22;11429;50.842;4.386;2024-03-29T03:55:49;8.30;99.90
22526;DHT22;11429;50.842;4.386;2024-03-29T03:58:15;8.30;99.90
22526;DHT22;11429;50.842;4.386;2024-03-29T04:00:41;8.20;99.90
22526;DHT22;11429;50.842;4.386;2024-03-29T04:03:06;8.10;99.90
22526;DHT22;11429;50.842;4.386;2024-03-29T04:05:32;8.10;99.90
22526;DHT22;11429;50.842;4.386;2024-03-29T04:07:58;8.00;99.90
22526;DHT22;11429;50.842;4.386;2024-03-29T04:10:25;8.10;99.90
22526;DHT22;11429;50.842;4.386;2024-03-29T04:12:51;8.10;99.90
22526;DHT22;11429;50.842;4.386;2024-03-29T04:15:17;8.10;99.90
22526;DHT22;11429;50.842;4.386;2024-03-29T04:17:42;8.10;99.90
22526;DHT22;11429;50.842;4.386;2024-03-29T04:20:08;8.10;99.90
22526;DHT22;11429;50.842;4.386;2024-03-29T04:22:34;8.10;99.90
22526;DHT22;11429;50.842;4.386;2024-03-29T04:25:00;8.00;99.90
22526;DHT22;11429;50.842;4.386;2024-03-29T04:27:26;7.90;99.90
22526;DHT22;11429;50.842;4.386;2024-03-29T04:29:53;7.90;99.90
22526;DHT22;11429;50.842;4.386;2024-03-29T04:32:19;7.90;99.90
22526;DHT22;11429;50.842;4.386;2024-03-29T04:34:51;8.00;99.90
22526;DHT22;11429;50.842;4.386;2024-03-29T04:37:18;8.00;99.90
22526;DHT22;11429;50.842;4.386;2024-03-29T04:39:44;8.00;99.90
22526;DHT22;11429;50.842;4.386;2024-03-29T04:42:10;7.90;99.90
22526;DHT22;11429;50.842;4.386;2024-03-29T04:44:36;7.90;99.90
22526;DHT22;11429;50.842;4.386;2024-03-29T04:47:02;7.90;99.90
22526;DHT22;11429;50.842;4.386;2024-03-29T04:49:28;7.90;99.90
22526;DHT22;11429;50.842;4.386;2024-03-29T04:51:56;7.90;99.90
22526;DHT22;11429;50.842;4.386;2024-03-29T04:54:23;7.90;99.90
22526;DHT22;11429;50.842;4.386;2024-03-29T04:56:48;7.90;99.90
22526;DHT22;11429;50.842;4.386;2024-03-29T04:59:14;7.90;99.90
22526;DHT22;11429;50.842;4.386;2024-03-29T05:01:45;8.00;99.90
22526;DHT22;11429;50.842;4.386;2024-03-29T05:04:18;7.90;99.90
22526;DHT22;11429;50.842;4.386;2024-03-29T05:06:57;8.00;99.90
22526;DHT22;11429;50.842;4.386;2024-03-29T05:09:26;8.00;99.90
22526;DHT22;11429;50.842;4.386;2024-03-29T05:11:52;8.10;99.90
22526;DHT22;11429;50.842;4.386;2024-03-29T05:14:21;8.20;99.90
22526;DHT22;11429;50.842;4.386;2024-03-29T05:16:48;8.30;99.90
22526;DHT22;11429;50.842;4.386;2024-03-29T05:19:14;8.30;99.90
22526;DHT22;11429;50.842;4.386;2024-03-29T05:21:42;8.20;99.90
22526;DHT22;11429;50.842;4.386;2024-03-29T05:24:08;8.20;99.90
22526;DHT22;11429;50.842;4.386;2024-03-29T05:26:34;8.10;99.90
22526;DHT22;11429;50.842;4.386;2024-03-29T05:29:00;8.20;99.90
22526;DHT22;11429;50.842;4.386;2024-03-29T05:31:26;8.30;99.90
22526;DHT22;11429;50.842;4.386;2024-03-29T05:33:55;8.30;99.90
22526;DHT22;11429;50.842;4.386;2024-03-29T05:36:20;8.20;99.90
22526;DHT22;11429;50.842;4.386;2024-03-29T05:38:46;8.10;99.90
22526;DHT22;11429;50.842;4.386;2024-03-29T05:41:12;8.10;99.90
22526;DHT22;11429;50.842;4.386;2024-03-29T05:43:41;8.20;99.90
22526;DHT22;11429;50.842;4.386;2024-03-29T05:46:07;8.20;99.90
22526;DHT22;11429;50.842;4.386;2024-03-29T05:48:32;8.10;99.90
22526;DHT22;11429;50.842;4.386;2024-03-29T05:50:58;8.10;99.90
22526;DHT22;11429;50.842;4.386;2024-03-29T05:53:24;8.10;99.90
22526;DHT22;11429;50.842;4.386;2024-03-29T05:55:50;8.20;99.90
22526;DHT22;11429;50.842;4.386;2024-03-29T05:58:16;8.20;99.90
22526;DHT22;11429;50.842;4.386;2024-03-29T06:00:46;8.20;99.90
22526;DHT22;11429;50.842;4.386;2024-03-29T06:03:11;8.20;99.90
22526;DHT22;11429;50.842;4.386;2024-03-29T06:05:38;8.30;99.90
22526;DHT22;11429;50.842;4.386;2024-03-29T06:08:05;8.30;99.90
22526;DHT22;11429;50.842;4.386;2024-03-29T06:10:31;8.10;99.90
22526;DHT22;11429;50.842;4.386;2024-03-29T06:12:56;8.20;99.90
22526;DHT22;11429;50.842;4.386;2024-03-29T06:15:24;8.30;99.90
22526;DHT22;11429;50.842;4.386;2024-03-29T06:18:08;8.20;99.90
22526;DHT22;11429;50.842;4.386;2024-03-29T06:20:36;8.20;99.90
22526;DHT22;11429;50.842;4.386;2024-03-29T06:23:02;8.20;99.90
22526;DHT22;11429;50.842;4.386;2024-03-29T06:25:27;8.20;99.90
22526;DHT22;11429;50.842;4.386;2024-03-29T06:27:53;8.10;99.90
22526;DHT22;11429;50.842;4.386;2024-03-29T06:30:19;8.10;99.90
22526;DHT22;11429;50.842;4.386;2024-03-29T06:32:45;8.10;99.90
22526;DHT22;11429;50.842;4.386;2024-03-29T06:35:12;8.10;99.90
22526;DHT22;11429;50.842;4.386;2024-03-29T06:37:38;8.20;99.90
22526;DHT22;11429;50.842;4.386;2024-03-29T06:40:04;8.40;99.90
22526;DHT22;11429;50.842;4.386;2024-03-29T06:42:31;8.60;99.90
22526;DHT22;11429;50.842;4.386;2024-03-29T06:44:57;8.40;99.90
22526;DHT22;11429;50.842;4.386;2024-03-29T06:47:24;8.40;99.90
22526;DHT22;11429;50.842;4.386;2024-03-29T06:49:50;8.40;99.90
22526;DHT22;11429;50.842;4.386;2024-03-29T06:52:16;8.40;99.90
22526;DHT22;11429;50.842;4.386;2024-03-29T06:54:42;8.50;99.90
22526;DHT22;11429;50.842;4.386;2024-03-29T06:57:07;8.60;99.90
22526;DHT22;11429;50.842;4.386;2024-03-29T06:59:35;8.60;99.90
22526;DHT22;11429;50.842;4.386;2024-03-29T07:02:01;8.70;99.90
22526;DHT22;11429;50.842;4.386;2024-03-29T07:04:27;8.80;99.90
22526;DHT22;11429;50.842;4.386;2024-03-29T07:06:53;8.70;99.90
22526;DHT22;11429;50.842;4.386;2024-03-29T07:09:20;8.70;99.90
22526;DHT22;11429;50.842;4.386;2024-03-29T07:11:51;8.80;99.90
22526;DHT22;11429;50.842;4.386;2024-03-29T07:14:17;8.70;99.90
22526;DHT22;11429;50.842;4.386;2024-03-29T07:16:44;8.80;99.90
22526;DHT22;11429;50.842;4.386;2024-03-29T07:19:11;8.80;99.90
22526;DHT22;11429;50.842;4.386;2024-03-29T07:21:42;8.80;99.90
22526;DHT22;11429;50.842;4.386;2024-03-29T07:24:08;8.90;99.90
22526;DHT22;11429;50.842;4.386;2024-03-29T07:26:34;8.90;99.90
22526;DHT22;11429;50.842;4.386;2024-03-29T07:29:00;8.90;99.90
22526;DHT22;11429;50.842;4.386;2024-03-29T07:31:26;9.00;99.90
22526;DHT22;11429;50.842;4.386;2024-03-29T07:33:52;9.00;99.90
22526;DHT22;11429;50.842;4.386;2024-03-29T07:36:18;9.10;99.90
22526;DHT22;11429;50.842;4.386;2024-03-29T07:38:43;9.20;99.90
22526;DHT22;11429;50.842;4.386;2024-03-29T07:41:09;9.20;99.90
22526;DHT22;11429;50.842;4.386;2024-03-29T07:43:40;9.20;99.90
22526;DHT22;11429;50.842;4.386;2024-03-29T07:46:06;9.30;99.90
22526;DHT22;11429;50.842;4.386;2024-03-29T07:48:34;9.30;99.90
22526;DHT22;11429;50.842;4.386;2024-03-29T07:51:00;9.30;99.90
22526;DHT22;11429;50.842;4.386;2024-03-29T07:53:26;9.40;99.90
22526;DHT22;11429;50.842;4.386;2024-03-29T07:55:51;9.40;99.90
22526;DHT22;11429;50.842;4.386;2024-03-29T07:58:17;9.50;99.90
22526;DHT22;11429;50.842;4.386;2024-03-29T08:00:43;9.60;99.90
22526;DHT22;11429;50.842;4.386;2024-03-29T08:03:09;9.70;99.90
22526;DHT22;11429;50.842;4.386;2024-03-29T08:05:34;9.70;99.90
22526;DHT22;11429;50.842;4.386;2024-03-29T08:08:00;9.80;99.90
22526;DHT22;11429;50.842;4.386;2024-03-29T08:10:26;9.90;99.90
22526;DHT22;11429;50.842;4.386;2024-03-29T08:12:52;10.00;99.90
22526;DHT22;11429;50.842;4.386;2024-03-29T08:15:18;10.10;99.90
22526;DHT22;11429;50.842;4.386;2024-03-29T08:17:44;10.10;99.90
22526;DHT22;11429;50.842;4.386;2024-03-29T08:20:11;10.20;99.90
22526;DHT22;11429;50.842;4.386;2024-03-29T08:22:36;10.30;99.90
22526;DHT22;11429;50.842;4.386;2024-03-29T08:25:02;10.50;99.90
22526;DHT22;11429;50.842;4.386;2024-03-29T08:27:28;10.60;99.90
22526;DHT22;11429;50.842;4.386;2024-03-29T08:29:54;10.60;99.90
22526;DHT22;11429;50.842;4.386;2024-03-29T08:32:20;10.60;99.90
22526;DHT22;11429;50.842;4.386;2024-03-29T08:34:46;10.70;99.90
22526;DHT22;11429;50.842;4.386;2024-03-29T08:37:12;10.90;99.90
22526;DHT22;11429;50.842;4.386;2024-03-29T08:39:38;11.30;99.90
22526;DHT22;11429;50.842;4.386;2024-03-29T08:42:04;11.50;99.90
22526;DHT22;11429;50.842;4.386;2024-03-29T08:44:37;11.60;99.90
22526;DHT22;11429;50.842;4.386;2024-03-29T08:47:04;11.40;99.90
22526;DHT22;11429;50.842;4.386;2024-03-29T08:49:30;11.40;99.90
22526;DHT22;11429;50.842;4.386;2024-03-29T08:51:58;11.60;99.90
22526;DHT22;11429;50.842;4.386;2024-03-29T08:54:30;11.60;99.90
22526;DHT22;11429;50.842;4.386;2024-03-29T08:56:56;11.70;99.90
22526;DHT22;11429;50.842;4.386;2024-03-29T08:59:22;11.80;99.90
22526;DHT22;11429;50.842;4.386;2024-03-29T09:01:48;12.10;99.90
22526;DHT22;11429;50.842;4.386;2024-03-29T09:04:14;12.30;99.90
22526;DHT22;11429;50.842;4.386;2024-03-29T09:06:41;12.60;99.90
22526;DHT22;11429;50.842;4.386;2024-03-29T09:09:07;13.60;99.90
22526;DHT22;11429;50.842;4.386;2024-03-29T09:11:34;14.50;99.90
22526;DHT22;11429;50.842;4.386;2024-03-29T09:14:00;14.60;99.90
22526;DHT22;11429;50.842;4.386;2024-03-29T09:16:26;15.10;99.90
22526;DHT22;11429;50.842;4.386;2024-03-29T09:18:54;15.00;99.90
22526;DHT22;11429;50.842;4.386;2024-03-29T09:21:20;15.00;99.90
22526;DHT22;11429;50.842;4.386;2024-03-29T09:23:46;14.10;99.90
22526;DHT22;11429;50.842;4.386;2024-03-29T09:26:14;14.00;99.90
22526;DHT22;11429;50.842;4.386;2024-03-29T09:28:40;13.80;99.90
22526;DHT22;11429;50.842;4.386;2024-03-29T09:31:06;13.40;99.90
22526;DHT22;11429;50.842;4.386;2024-03-29T09:33:32;13.50;99.90
22526;DHT22;11429;50.842;4.386;2024-03-29T09:35:58;13.60;99.90
22526;DHT22;11429;50.842;4.386;2024-03-29T09:38:27;14.00;99.90
22526;DHT22;11429;50.842;4.386;2024-03-29T09:41:17;14.10;99.90
22526;DHT22;11429;50.842;4.386;2024-03-29T09:43:48;14.40;99.90
22526;DHT22;11429;50.842;4.386;2024-03-29T09:46:14;13.90;99.90
22526;DHT22;11429;50.842;4.386;2024-03-29T09:48:41;13.80;99.90
22526;DHT22;11429;50.842;4.386;2024-03-29T09:51:08;13.80;99.90
22526;DHT22;11429;50.842;4.386;2024-03-29T09:53:37;14.00;99.90
22526;DHT22;11429;50.842;4.386;2024-03-29T09:56:04;14.20;99.90
22526;DHT22;11429;50.842;4.386;2024-03-29T09:58:31;14.80;99.90
22526;DHT22;11429;50.842;4.386;2024-03-29T10:00:57;15.20;99.90
22526;DHT22;11429;50.842;4.386;2024-03-29T10:03:27;16.00;99.90
22526;DHT22;11429;50.842;4.386;2024-03-29T10:05:59;16.40;99.90
22526;DHT22;11429;50.842;4.386;2024-03-29T10:08:29;16.90;99.90
22526;DHT22;11429;50.842;4.386;2024-03-29T10:10:59;17.30;99.90
22526;DHT22;11429;50.842;4.386;2024-03-29T10:13:25;17.00;99.90
22526;DHT22;11429;50.842;4.386;2024-03-29T10:15:52;16.60;99.90
22526;DHT22;11429;50.842;4.386;2024-03-29T10:18:24;16.80;99.90
22526;DHT22;11429;50.842;4.386;2024-03-29T10:21:04;16.50;99.90
22526;DHT22;11429;50.842;4.386;2024-03-29T10:23:31;16.20;99.90
22526;DHT22;11429;50.842;4.386;2024-03-29T10:25:57;16.60;99.90
22526;DHT22;11429;50.842;4.386;2024-03-29T10:28:27;16.50;99.90
22526;DHT22;11429;50.842;4.386;2024-03-29T10:30:55;16.80;99.90
22526;DHT22;11429;50.842;4.386;2024-03-29T10:33:21;17.50;99.90
22526;DHT22;11429;50.842;4.386;2024-03-29T10:35:47;17.30;99.90
22526;DHT22;11429;50.842;4.386;2024-03-29T10:38:12;16.40;99.90
22526;DHT22;11429;50.842;4.386;2024-03-29T10:40:39;15.80;99.90
22526;DHT22;11429;50.842;4.386;2024-03-29T10:43:11;15.50;99.90
22526;DHT22;11429;50.842;4.386;2024-03-29T10:45:42;15.50;99.90
22526;DHT22;11429;50.842;4.386;2024-03-29T10:48:09;15.60;99.90
22526;DHT22;11429;50.842;4.386;2024-03-29T10:50:38;15.40;99.90
22526;DHT22;11429;50.842;4.386;2024-03-29T10:53:06;15.20;99.90
22526;DHT22;11429;50.842;4.386;2024-03-29T10:55:36;15.30;99.90
22526;DHT22;11429;50.842;4.386;2024-03-29T10:58:04;15.40;99.90
22526;DHT22;11429;50.842;4.386;2024-03-29T11:00:33;15.70;99.90
22526;DHT22;11429;50.842;4.386;2024-03-29T11:06:02;16.60;99.90
22526;DHT22;11429;50.842;4.386;2024-03-29T11:08:34;16.50;99.90
22526;DHT22;11429;50.842;4.386;2024-03-29T11:11:04;16.60;99.90
22526;DHT22;11429;50.842;4.386;2024-03-29T11:13:54;17.00;99.90
22526;DHT22;11429;50.842;4.386;2024-03-29T11:16:21;16.70;99.90
22526;DHT22;11429;50.842;4.386;2024-03-29T11:18:47;17.10;99.90
22526;DHT22;11429;50.842;4.386;2024-03-29T11:21:17;17.30;99.90
22526;DHT22;11429;50.842;4.386;2024-03-29T11:23:53;18.40;99.90
22526;DHT22;11429;50.842;4.386;2024-03-29T11:26:19;18.90;99.90
22526;DHT22;11429;50.842;4.386;2024-03-29T11:28:50;18.70;99.90
22526;DHT22;11429;50.842;4.386;2024-03-29T11:31:16;18.80;99.90
22526;DHT22;11429;50.842;4.386;2024-03-29T11:36:20;18.60;99.90
22526;DHT22;11429;50.842;4.386;2024-03-29T11:38:51;18.30;99.90
22526;DHT22;11429;50.842;4.386;2024-03-29T11:41:21;18.20;99.90
22526;DHT22;11429;50.842;4.386;2024-03-29T11:43:53;18.40;99.90
22526;DHT22;11429;50.842;4.386;2024-03-29T11:46:20;18.50;99.90
22526;DHT22;11429;50.842;4.386;2024-03-29T11:48:46;18.50;99.90
22526;DHT22;11429;50.842;4.386;2024-03-29T11:51:16;18.30;99.90
22526;DHT22;11429;50.842;4.386;2024-03-29T11:53:43;17.40;99.90
22526;DHT22;11429;50.842;4.386;2024-03-29T11:56:10;16.80;99.90
22526;DHT22;11429;50.842;4.386;2024-03-29T11:58:37;16.90;99.90
22526;DHT22;11429;50.842;4.386;2024-03-29T12:01:04;17.10;99.90
22526;DHT22;11429;50.842;4.386;2024-03-29T12:03:31;17.40;99.90
22526;DHT22;11429;50.842;4.386;2024-03-29T12:05:59;18.10;99.90
22526;DHT22;11429;50.842;4.386;2024-03-29T12:08:31;18.30;99.90
22526;DHT22;11429;50.842;4.386;2024-03-29T12:11:02;18.50;99.90
22526;DHT22;11429;50.842;4.386;2024-03-29T12:13:28;18.00;99.90
22526;DHT22;11429;50.842;4.386;2024-03-29T12:15:54;18.20;99.90
22526;DHT22;11429;50.842;4.386;2024-03-29T12:18:25;18.00;99.90
22526;DHT22;11429;50.842;4.386;2024-03-29T12:20:52;17.60;99.90
22526;DHT22;11429;50.842;4.386;2024-03-29T12:23:21;17.60;99.90
22526;DHT22;11429;50.842;4.386;2024-03-29T12:25:49;18.10;99.90
22526;DHT22;11429;50.842;4.386;2024-03-29T12:28:16;17.60;99.90
22526;DHT22;11429;50.842;4.386;2024-03-29T12:30:45;17.80;99.90
22526;DHT22;11429;50.842;4.386;2024-03-29T12:33:14;17.30;99.90
22526;DHT22;11429;50.842;4.386;2024-03-29T12:35:44;17.00;99.90
22526;DHT22;11429;50.842;4.386;2024-03-29T12:38:14;16.80;99.90
22526;DHT22;11429;50.842;4.386;2024-03-29T12:40:42;16.80;99.90
22526;DHT22;11429;50.842;4.386;2024-03-29T12:43:09;17.00;99.90
22526;DHT22;11429;50.842;4.386;2024-03-29T12:45:39;16.80;99.90
22526;DHT22;11429;50.842;4.386;2024-03-29T12:48:13;16.70;99.90
22526;DHT22;11429;50.842;4.386;2024-03-29T12:50:41;16.60;99.90
22526;DHT22;11429;50.842;4.386;2024-03-29T12:53:08;16.80;99.90
22526;DHT22;11429;50.842;4.386;2024-03-29T12:55:35;16.90;99.90
22526;DHT22;11429;50.842;4.386;2024-03-29T12:58:07;17.00;99.90
22526;DHT22;11429;50.842;4.386;2024-03-29T13:00:39;17.30;99.90
22526;DHT22;11429;50.842;4.386;2024-03-29T13:03:06;17.50;99.90
22526;DHT22;11429;50.842;4.386;2024-03-29T13:05:32;17.70;99.90
22526;DHT22;11429;50.842;4.386;2024-03-29T13:08:06;18.10;99.90
22526;DHT22;11429;50.842;4.386;2024-03-29T13:10:34;18.30;99.90
22526;DHT22;11429;50.842;4.386;2024-03-29T13:13:00;17.50;99.90
22526;DHT22;11429;50.842;4.386;2024-03-29T13:15:27;16.70;99.90
22526;DHT22;11429;50.842;4.386;2024-03-29T13:17:54;16.40;99.90
22526;DHT22;11429;50.842;4.386;2024-03-29T13:20:21;16.30;99.90
22526;DHT22;11429;50.842;4.386;2024-03-29T13:22:48;16.40;99.90
22526;DHT22;11429;50.842;4.386;2024-03-29T13:25:21;16.60;99.90
22526;DHT22;11429;50.842;4.386;2024-03-29T13:27:49;16.40;99.90
22526;DHT22;11429;50.842;4.386;2024-03-29T13:30:20;16.40;99.90
22526;DHT22;11429;50.842;4.386;2024-03-29T13:32:46;16.30;99.90
22526;DHT22;11429;50.842;4.386;2024-03-29T13:35:12;16.30;99.90
22526;DHT22;11429;50.842;4.386;2024-03-29T13:37:42;16.20;99.90
22526;DHT22;11429;50.842;4.386;2024-03-29T13:40:09;16.20;99.90
22526;DHT22;11429;50.842;4.386;2024-03-29T13:42:36;16.30;99.90
22526;DHT22;11429;50.842;4.386;2024-03-29T13:45:03;16.50;99.90
22526;DHT22;11429;50.842;4.386;2024-03-29T13:47:29;16.60;99.90
22526;DHT22;11429;50.842;4.386;2024-03-29T13:49:55;16.80;99.90
22526;DHT22;11429;50.842;4.386;2024-03-29T13:52:22;16.60;99.90
22526;DHT22;11429;50.842;4.386;2024-03-29T13:54:48;16.60;99.90
22526;DHT22;11429;50.842;4.386;2024-03-29T13:57:16;16.60;99.90
22526;DHT22;11429;50.842;4.386;2024-03-29T13:59:43;16.70;99.90
22526;DHT22;11429;50.842;4.386;2024-03-29T14:02:18;16.10;99.90
22526;DHT22;11429;50.842;4.386;2024-03-29T14:04:45;15.90;99.90
22526;DHT22;11429;50.842;4.386;2024-03-29T14:07:13;15.90;99.90
22526;DHT22;11429;50.842;4.386;2024-03-29T14:09:44;16.20;99.90
22526;DHT22;11429;50.842;4.386;2024-03-29T14:12:11;16.10;99.90
22526;DHT22;11429;50.842;4.386;2024-03-29T14:14:37;16.10;99.90
22526;DHT22;11429;50.842;4.386;2024-03-29T14:17:03;16.00;99.90
22526;DHT22;11429;50.842;4.386;2024-03-29T14:19:35;16.20;99.90
22526;DHT22;11429;50.842;4.386;2024-03-29T14:22:01;16.30;99.90
22526;DHT22;11429;50.842;4.386;2024-03-29T14:24:27;16.50;99.90
22526;DHT22;11429;50.842;4.386;2024-03-29T14:26:57;16.30;99.90
22526;DHT22;11429;50.842;4.386;2024-03-29T14:29:23;16.20;99.90
22526;DHT22;11429;50.842;4.386;2024-03-29T14:31:49;16.40;99.90
22526;DHT22;11429;50.842;4.386;2024-03-29T14:34:16;16.40;99.90
22526;DHT22;11429;50.842;4.386;2024-03-29T14:36:42;16.90;99.90
22526;DHT22;11429;50.842;4.386;2024-03-29T14:39:08;17.00;99.90
22526;DHT22;11429;50.842;4.386;2024-03-29T14:41:35;16.90;99.90
22526;DHT22;11429;50.842;4.386;2024-03-29T14:44:02;16.60;99.90
22526;DHT22;11429;50.842;4.386;2024-03-29T14:46:28;16.50;99.90
22526;DHT22;11429;50.842;4.386;2024-03-29T14:48:54;16.30;99.90
22526;DHT22;11429;50.842;4.386;2024-03-29T14:51:20;16.40;99.90
22526;DHT22;11429;50.842;4.386;2024-03-29T14:53:46;16.50;99.90
22526;DHT22;11429;50.842;4.386;2024-03-29T14:56:18;16.60;99.90
22526;DHT22;11429;50.842;4.386;2024-03-29T14:58:43;16.40;99.90
22526;DHT22;11429;50.842;4.386;2024-03-29T15:01:10;16.40;99.90
22526;DHT22;11429;50.842;4.386;2024-03-29T15:03:36;16.50;99.90
22526;DHT22;11429;50.842;4.386;2024-03-29T15:06:02;16.60;99.90
22526;DHT22;11429;50.842;4.386;2024-03-29T15:08:27;16.30;99.90
22526;DHT22;11429;50.842;4.386;2024-03-29T15:11:00;16.10;99.90
22526;DHT22;11429;50.842;4.386;2024-03-29T15:13:27;15.90;99.90
22526;DHT22;11429;50.842;4.386;2024-03-29T15:15:57;15.70;99.90
22526;DHT22;11429;50.842;4.386;2024-03-29T15:18:23;15.60;99.90
22526;DHT22;11429;50.842;4.386;2024-03-29T15:20:57;15.40;99.90
22526;DHT22;11429;50.842;4.386;2024-03-29T15:23:23;15.40;99.90
22526;DHT22;11429;50.842;4.386;2024-03-29T15:25:53;15.50;99.90
22526;DHT22;11429;50.842;4.386;2024-03-29T15:28:20;15.60;99.90
22526;DHT22;11429;50.842;4.386;2024-03-29T15:31:13;15.50;99.90
22526;DHT22;11429;50.842;4.386;2024-03-29T15:33:39;15.30;99.90
22526;DHT22;11429;50.842;4.386;2024-03-29T15:36:05;15.40;99.90
22526;DHT22;11429;50.842;4.386;2024-03-29T15:40:58;15.60;99.90
22526;DHT22;11429;50.842;4.386;2024-03-29T15:43:26;15.60;99.90
22526;DHT22;11429;50.842;4.386;2024-03-29T15:45:52;15.40;99.90